Costa Mediterranea — IBCF — position and weather

sailwx.info

Track history (hours):
 
Tides and Currents Weather Stations Pressure Air Temp Water Temp Dewpoint Dewpoint Depression Visibility Wind Speed Wind Dir Waves Ship Positions

Costa Mediterranea

Last reported at 2018-Sep-24 02:19 UTC. Time now 2018-Sep-24 21:10 UTC.
Position N 40°17' E 002°16'.

Length 293 m; draft 8 m.

Type: Ship. MMSI: 247088200.

Date/timePositionNaut miles runAvg speedWind from/ knotsBaromVisibWave heightAir tempDewpointWater temp
2018-Sep-24 02:19N 40°17' E 002°16'3 9.7
2018-Sep-24 02:02N 40°15' E 002°15'0 9.7
2018-Sep-24 02:01N 40°15' E 002°15'13 9.9
2018-Sep-24 00:40N 40°03' E 002°07'410.1
2018-Sep-24 00:19N 39°59' E 002°06'310.0
2018-Sep-24 00:03N 39°57' E 002°04'4 9.9
2018-Sep-23 23:42N 39°54' E 002°02'610.2
2018-Sep-23 23:09N 39°49' E 001°59'3 9.9
2018-Sep-23 22:54N 39°47' E 001°58'4 9.9
2018-Sep-23 22:30N 39°43' E 001°56'8 9.5
2018-Sep-23 21:39N 39°36' E 001°51'1 9.5
2018-Sep-23 21:30N 39°34' E 001°51'4 8.9
2018-Sep-23 21:02N 39°30' E 001°54'0 9.6
2018-Sep-23 21:01N 39°30' E 001°54'17 9.6
2018-Sep-23 19:18N 39°19' E 002°09'210.0
2018-Sep-23 19:04N 39°17' E 002°12'1 9.9
2018-Sep-23 19:00N 39°17' E 002°12'4 8.9
2018-Sep-23 18:30N 39°17' E 002°18'4 9.6
2018-Sep-23 18:04N 39°20' E 002°23'1 9.5
2018-Sep-23 18:00N 39°20' E 002°23'5 9.6
2018-Sep-23 17:28N 39°23' E 002°29'4 9.6
2018-Sep-23 17:03N 39°25' E 002°33'0 9.8
2018-Sep-23 17:00N 39°26' E 002°33'5 9.9
2018-Sep-23 16:31N 39°30' E 002°37'4 8.1
2018-Sep-23 16:03N 39°33' E 002°38'0 2.8
2018-Sep-23 16:00N 39°33' E 002°38'0 0.5
2018-Sep-23 15:29N 39°33' E 002°38'0 0.0
2018-Sep-23 15:02N 39°33' E 002°38'0 0.0
2018-Sep-23 14:59N 39°33' E 002°38'0 0.0
2018-Sep-23 14:02N 39°33' E 002°38'0 0.0
2018-Sep-23 13:29N 39°33' E 002°38'0 0.0
2018-Sep-23 13:02N 39°33' E 002°38'0 0.0
2018-Sep-23 12:59N 39°33' E 002°38'0 0.0
2018-Sep-23 12:29N 39°33' E 002°38'0 0.0
2018-Sep-23 12:02N 39°33' E 002°38'0 0.0
2018-Sep-23 11:59N 39°33' E 002°38'0 0.0
2018-Sep-23 11:29N 39°33' E 002°38'0 0.0
2018-Sep-23 11:02N 39°33' E 002°38'0 0.0
2018-Sep-23 10:59N 39°33' E 002°38'0 0.0
2018-Sep-23 10:26N 39°33' E 002°38'0 0.0
2018-Sep-23 10:02N 39°33' E 002°38'0 0.0
2018-Sep-23 09:59N 39°33' E 002°38'0 0.0
2018-Sep-23 09:29N 39°33' E 002°38'0 0.0
2018-Sep-23 09:02N 39°33' E 002°38'0 0.0
2018-Sep-23 08:59N 39°33' E 002°38'0 0.0
2018-Sep-23 08:29N 39°33' E 002°38'0 0.0
2018-Sep-23 08:02N 39°33' E 002°38'0 0.0
2018-Sep-23 07:59N 39°33' E 002°38'0 0.0
2018-Sep-23 07:29N 39°33' E 002°38'0 0.0
2018-Sep-23 07:02N 39°33' E 002°38'0 0.0
2018-Sep-23 06:59N 39°33' E 002°38'0 0.0
2018-Sep-23 06:29N 39°33' E 002°38'0 0.0
2018-Sep-23 06:01N 39°33' E 002°38'0 0.0
2018-Sep-23 05:58N 39°33' E 002°38'0 0.0
2018-Sep-23 05:28N 39°33' E 002°38'0 0.4
2018-Sep-23 05:03N 39°33' E 002°38'0 2.8
2018-Sep-23 05:00N 39°33' E 002°38'4 7.4
2018-Sep-23 04:30N 39°30' E 002°37'613.5
2018-Sep-23 04:03N 39°25' E 002°32'113.4
2018-Sep-23 04:00N 39°25' E 002°31'713.7
2018-Sep-23 03:30N 39°25' E 002°22'612.7
2018-Sep-23 03:03N 39°29' E 002°18'613.1
2018-Sep-23 02:36N 39°34' E 002°13'113.3
2018-Sep-23 02:30N 39°35' E 002°13'2112.8
2018-Sep-23 00:53N 39°56' E 002°14'1312.5
2018-Sep-22 23:48N 40°09' E 002°13'512.7
2018-Sep-22 23:23N 40°15' E 002°13'5412.6
2018-Sep-22 19:06N 41°09' E 002°11'113.3
2018-Sep-22 19:03N 41°09' E 002°11'113.5
2018-Sep-22 19:00N 41°10' E 002°11'612.9
2018-Sep-22 18:30N 41°16' E 002°11'4 9.9
2018-Sep-22 18:03N 41°21' E 002°10'0 4.9
2018-Sep-22 18:01N 41°21' E 002°10'0 0.1
2018-Sep-22 17:25N 41°21' E 002°10'0 0.0
2018-Sep-22 17:01N 41°21' E 002°10'0 0.0
2018-Sep-22 16:58N 41°21' E 002°10'0 0.0
2018-Sep-22 16:29N 41°21' E 002°10'0 0.0
2018-Sep-22 15:59N 41°21' E 002°10'0 0.0
2018-Sep-22 15:30N 41°21' E 002°10'0 0.0
2018-Sep-22 15:03N 41°21' E 002°10'0 0.0
2018-Sep-22 14:59N 41°21' E 002°10'0 0.0
2018-Sep-22 14:30N 41°21' E 002°10'0 0.0
2018-Sep-22 13:58N 41°21' E 002°10'0 0.0
2018-Sep-22 13:29N 41°21' E 002°10'0 0.0
2018-Sep-22 13:03N 41°21' E 002°10'0 0.0
2018-Sep-22 12:59N 41°21' E 002°10'0 0.0
2018-Sep-22 12:29N 41°21' E 002°10'0 0.0
2018-Sep-22 12:02N 41°21' E 002°10'0 0.0
2018-Sep-22 11:56N 41°21' E 002°10'0 0.0
2018-Sep-22 11:29N 41°21' E 002°10'0 1.0
2018-Sep-22 11:04N 41°21' E 002°10'0 1.0
2018-Sep-22 11:00N 41°21' E 002°10'4 8.4
2018-Sep-22 10:30N 41°17' E 002°11'716.1
2018-Sep-22 10:04N 41°19' E 002°20'118.2
2018-Sep-22 10:00N 41°20' E 002°21'22617.3
2018-Sep-21 20:57N 43°07' E 006°51'818.9
2018-Sep-21 20:30N 43°11' E 007°01'919.1
2018-Sep-21 20:03N 43°16' E 007°10'119.2
2018-Sep-21 20:00N 43°17' E 007°11'918.8
2018-Sep-21 19:31N 43°22' E 007°22'818.8
2018-Sep-21 19:03N 43°27' E 007°31'118.9
2018-Sep-21 19:00N 43°28' E 007°32'918.9
2018-Sep-21 18:30N 43°34' E 007°42'919.1
2018-Sep-21 18:04N 43°40' E 007°51'119.2
2018-Sep-21 18:00N 43°40' E 007°52'1019.2
2018-Sep-21 17:30N 43°47' E 008°01'918.9
2018-Sep-21 17:03N 43°53' E 008°10'118.8
2018-Sep-21 17:00N 43°54' E 008°11'918.8
2018-Sep-21 16:30N 44°01' E 008°19'818.6
2018-Sep-21 16:04N 44°07' E 008°26'118.5
2018-Sep-21 16:01N 44°08' E 008°27'917.2
2018-Sep-21 15:31N 44°16' E 008°32'3 7.0
2018-Sep-21 15:03N 44°19' E 008°29'0 1.2
2018-Sep-21 15:00N 44°19' E 008°29'0 0.0
2018-Sep-21 14:30N 44°19' E 008°29'0 0.0
2018-Sep-21 13:30N 44°19' E 008°29'0 0.0
2018-Sep-21 13:03N 44°19' E 008°29'0 0.0
2018-Sep-21 13:00N 44°19' E 008°29'0 0.0
2018-Sep-21 12:30N 44°19' E 008°29'0 0.0
2018-Sep-21 12:02N 44°19' E 008°29'0 0.0
2018-Sep-21 11:56N 44°19' E 008°29'0 0.0
2018-Sep-21 11:29N 44°19' E 008°29'0 0.0
2018-Sep-21 11:02N 44°19' E 008°29'0 0.0
2018-Sep-21 10:59N 44°19' E 008°29'0 0.0
2018-Sep-21 10:23N 44°19' E 008°29'0 0.0
2018-Sep-21 10:02N 44°19' E 008°29'0 0.0
2018-Sep-21 09:59N 44°19' E 008°29'0 0.0
2018-Sep-21 09:29N 44°19' E 008°29'0 0.0
2018-Sep-21 09:02N 44°19' E 008°29'0 0.0
2018-Sep-21 08:59N 44°19' E 008°29'0 0.0
2018-Sep-21 08:29N 44°19' E 008°29'0 0.0
2018-Sep-21 08:01N 44°19' E 008°29'0 0.0
2018-Sep-21 07:58N 44°19' E 008°29'0 0.0
2018-Sep-21 07:28N 44°19' E 008°29'0 0.0
2018-Sep-21 07:01N 44°19' E 008°29'0 0.0
2018-Sep-21 06:58N 44°19' E 008°29'0 0.0
2018-Sep-21 06:28N 44°19' E 008°29'0 0.0
2018-Sep-21 06:01N 44°19' E 008°29'0 0.0
2018-Sep-21 05:58N 44°19' E 008°29'1 1.8
2018-Sep-21 05:31N 44°19' E 008°30'2 5.0
2018-Sep-21 05:04N 44°17' E 008°32'111.3
2018-Sep-21 05:00N 44°17' E 008°32'612.2
2018-Sep-21 04:30N 44°11' E 008°30'612.8
2018-Sep-21 04:03N 44°06' E 008°25'113.0
2018-Sep-21 04:01N 44°06' E 008°24'713.3
2018-Sep-21 03:31N 44°00' E 008°19'613.7
2018-Sep-21 03:03N 43°55' E 008°13'113.6
2018-Sep-21 03:00N 43°55' E 008°13'713.4
2018-Sep-21 02:31N 43°50' E 008°06'613.4
2018-Sep-21 02:03N 43°46' E 008°00'113.4
2018-Sep-21 02:00N 43°45' E 007°60'713.3
2018-Sep-21 01:30N 43°41' E 007°53'613.4
2018-Sep-21 01:04N 43°37' E 007°47'113.7
2018-Sep-21 01:01N 43°36' E 007°46'713.7
2018-Sep-21 00:30N 43°32' E 007°39'613.7
2018-Sep-21 00:03N 43°28' E 007°32'113.9
2018-Sep-21 00:00N 43°28' E 007°32'714.0
2018-Sep-20 23:30N 43°24' E 007°24'614.0
2018-Sep-20 23:03N 43°20' E 007°17'113.9
2018-Sep-20 23:00N 43°19' E 007°16'713.8
2018-Sep-20 22:30N 43°15' E 007°08'614.0
2018-Sep-20 22:03N 43°12' E 007°01'114.2
2018-Sep-20 22:01N 43°11' E 007°00'714.1
2018-Sep-20 21:30N 43°08' E 006°52'613.8
2018-Sep-20 21:03N 43°05' E 006°45'113.8
2018-Sep-20 21:00N 43°04' E 006°44'713.8
2018-Sep-20 20:30N 43°01' E 006°36'5812.8
2018-Sep-20 15:58N 43°11' E 005°17'613.6
2018-Sep-20 15:30N 43°18' E 005°15'4 0.4
2018-Sep-20 04:54N 43°21' E 005°19'4 7.8
2018-Sep-20 04:21N 43°19' E 005°14'310.6
2018-Sep-20 04:03N 43°16' E 005°11'111.1
2018-Sep-20 04:00N 43°16' E 005°11'610.9
2018-Sep-20 03:29N 43°10' E 005°10'510.9
2018-Sep-20 03:02N 43°06' E 005°07'011.1
2018-Sep-20 03:00N 43°05' E 005°07'711.0
2018-Sep-20 02:24N 42°59' E 005°04'410.8
2018-Sep-20 02:02N 42°55' E 005°03'010.7
2018-Sep-20 02:00N 42°55' E 005°02'710.4
2018-Sep-20 01:21N 42°49' E 004°59'410.0
2018-Sep-20 00:57N 42°45' E 004°58'8 9.9
2018-Sep-20 00:10N 42°38' E 004°54'2 9.6
2018-Sep-20 00:00N 42°36' E 004°53'11 9.6
2018-Sep-19 22:50N 42°25' E 004°48'3 9.7
2018-Sep-19 22:30N 42°22' E 004°47'4 9.5
2018-Sep-19 22:03N 42°18' E 004°47'1 9.6
2018-Sep-19 22:00N 42°18' E 004°47'5 9.2
2018-Sep-19 21:30N 42°14' E 004°43'512.1
2018-Sep-19 21:03N 42°11' E 004°37'010.5
2018-Sep-19 21:00N 42°10' E 004°37'264 9.7
2018-Sep-18 17:54N 39°34' W 000°04'4 9.8
2018-Sep-18 17:30N 39°31' W 000°08'510.0
2018-Sep-18 17:03N 39°28' W 000°11'110.2
2018-Sep-18 17:00N 39°27' W 000°11'5 8.7
2018-Sep-18 16:26N 39°25' W 000°17'2 6.1
2018-Sep-18 16:01N 39°27' W 000°19'0 2.2
2018-Sep-18 16:00N 39°27' W 000°19'0 0.1
2018-Sep-18 15:22N 39°27' W 000°19'0 0.0
2018-Sep-18 14:58N 39°27' W 000°19'0 0.0
2018-Sep-18 14:02N 39°27' W 000°19'0 0.0
2018-Sep-18 14:00N 39°27' W 000°19'0 0.0
2018-Sep-18 13:30N 39°27' W 000°19'0 0.0
2018-Sep-18 13:03N 39°27' W 000°19'0 0.0
2018-Sep-18 13:00N 39°27' W 000°19'0 0.0
2018-Sep-18 12:30N 39°27' W 000°19'0 0.0
2018-Sep-18 12:00N 39°27' W 000°19'0 0.0
2018-Sep-18 11:30N 39°27' W 000°19'0 0.0
2018-Sep-18 11:00N 39°27' W 000°19'0 0.0
2018-Sep-18 10:27N 39°27' W 000°19'0 0.0
2018-Sep-18 10:00N 39°27' W 000°19'0 0.0
2018-Sep-18 09:30N 39°27' W 000°19'0 0.0
2018-Sep-18 09:00N 39°27' W 000°19'0 0.0
2018-Sep-18 08:30N 39°27' W 000°19'0 0.0
2018-Sep-18 08:00N 39°27' W 000°19'0 0.0
2018-Sep-18 07:30N 39°27' W 000°19'0 0.0
2018-Sep-18 07:00N 39°27' W 000°19'0 0.0
2018-Sep-18 06:29N 39°27' W 000°19'0 0.0
2018-Sep-18 06:03N 39°27' W 000°19'0 0.0
2018-Sep-18 06:01N 39°27' W 000°19'0 0.0
2018-Sep-18 05:30N 39°27' W 000°19'0 1.0
2018-Sep-18 05:03N 39°27' W 000°19'0 1.3
2018-Sep-18 05:00N 39°27' W 000°19'3 5.5
2018-Sep-18 04:30N 39°25' W 000°17'510.4
2018-Sep-18 04:01N 39°21' W 000°12'79 9.3
2018-Sep-17 19:29N 38°02' W 000°06'811.4
2018-Sep-17 18:44N 37°55' W 000°12'311.4
2018-Sep-17 18:30N 37°53' W 000°13'611.3
2018-Sep-17 17:59N 37°48' W 000°18'611.6
2018-Sep-17 17:30N 37°44' W 000°22'511.7
2018-Sep-17 17:03N 37°39' W 000°25'012.0
2018-Sep-17 17:00N 37°39' W 000°26'611.9
2018-Sep-17 16:31N 37°34' W 000°30'611.8
2018-Sep-17 16:00N 37°30' W 000°35'611.9
2018-Sep-17 15:30N 37°26' W 000°41'511.8
2018-Sep-17 15:03N 37°22' W 000°46'111.9
2018-Sep-17 15:01N 37°22' W 000°47'612.0
2018-Sep-17 14:31N 37°18' W 000°52'712.3
2018-Sep-17 13:56N 37°13' W 000°58'612.3
2018-Sep-17 13:27N 37°09' W 001°04'21011.5
2018-Sep-16 19:16N 36°05' W 005°13'311.9
2018-Sep-16 19:01N 36°05' W 005°16'012.5
2018-Sep-16 19:01N 36°05' W 005°16'611.4
2018-Sep-16 18:29N 36°07' W 005°23'2 1.7
2018-Sep-16 17:17N 36°09' W 005°22'0 0.0
2018-Sep-16 16:59N 36°09' W 005°22'0 0.0
2018-Sep-16 16:17N 36°09' W 005°22'0 0.0
2018-Sep-16 15:41N 36°09' W 005°22'0 0.0
2018-Sep-16 15:29N 36°09' W 005°22'0 0.0
2018-Sep-16 14:59N 36°09' W 005°22'0 0.0
2018-Sep-16 14:31N 36°09' W 005°22'0 0.0
2018-Sep-16 13:03N 36°09' W 005°22'0 0.0
2018-Sep-16 12:57N 36°09' W 005°22'0 0.0
2018-Sep-16 12:21N 36°09' W 005°22'0 0.0
2018-Sep-16 12:01N 36°09' W 005°22'0 0.0
2018-Sep-16 12:00N 36°09' W 005°22'5 4.2
2018-Sep-16 10:42N 36°03' W 005°23'317.2
2018-Sep-16 10:30N 36°00' W 005°24'11518.2
2018-Sep-16 04:11N 36°13' W 007°46'218.6
2018-Sep-16 04:03N 36°13' W 007°49'118.5
2018-Sep-16 04:00N 36°14' W 007°50'918.5
2018-Sep-16 03:30N 36°16' W 008°01'818.1
2018-Sep-16 03:03N 36°18' W 008°11'118.1
2018-Sep-16 03:00N 36°19' W 008°12'918.2
2018-Sep-16 02:30N 36°21' W 008°22'818.1
2018-Sep-16 02:03N 36°23' W 008°32'118.2
2018-Sep-16 02:00N 36°23' W 008°33'1018.3
2018-Sep-16 01:29N 36°26' W 008°44'818.4
2018-Sep-16 01:03N 36°28' W 008°54'118.5
2018-Sep-16 01:00N 36°29' W 008°55'918.2
2018-Sep-16 00:30N 36°31' W 009°06'818.1
2018-Sep-16 00:03N 36°34' W 009°15'118.2
2018-Sep-16 00:00N 36°35' W 009°16'918.7
2018-Sep-15 23:30N 36°41' W 009°25'818.7
2018-Sep-15 23:03N 36°47' W 009°32'118.6
2018-Sep-15 23:00N 36°48' W 009°33'1019.1
2018-Sep-15 22:30N 36°57' W 009°36'919.4
2018-Sep-15 22:03N 37°05' W 009°36'119.7
2018-Sep-15 22:00N 37°06' W 009°36'1019.2
2018-Sep-15 21:30N 37°16' W 009°34'919.3
2018-Sep-15 21:03N 37°25' W 009°33'119.1
2018-Sep-15 21:00N 37°26' W 009°33'918.8
2018-Sep-15 20:30N 37°35' W 009°32'818.4
2018-Sep-15 20:03N 37°43' W 009°30'118.3
2018-Sep-15 20:00N 37°44' W 009°30'918.5
2018-Sep-15 19:30N 37°53' W 009°29'818.5
2018-Sep-15 19:03N 38°01' W 009°28'118.4
2018-Sep-15 19:00N 38°02' W 009°28'918.4
2018-Sep-15 18:30N 38°12' W 009°26'818.1
2018-Sep-15 18:03N 38°20' W 009°25'118.1
2018-Sep-15 18:00N 38°21' W 009°25'918.5
2018-Sep-15 17:30N 38°30' W 009°24'818.1
2018-Sep-15 17:03N 38°38' W 009°21'117.0
2018-Sep-15 17:00N 38°38' W 009°21'713.4
2018-Sep-15 16:30N 38°41' W 009°13'3 5.5
2018-Sep-15 16:01N 38°42' W 009°10'0 0.1
2018-Sep-15 16:00N 38°42' W 009°10'0 0.0
2018-Sep-15 15:28N 38°42' W 009°10'0 0.0
2018-Sep-15 15:03N 38°42' W 009°10'0 0.0
2018-Sep-15 14:03N 38°42' W 009°10'0 0.0
2018-Sep-15 14:00N 38°42' W 009°10'0 0.0
2018-Sep-15 13:22N 38°42' W 009°10'0 0.0
2018-Sep-15 13:00N 38°42' W 009°10'0 0.0
2018-Sep-15 12:30N 38°42' W 009°10'0 0.0
2018-Sep-15 11:57N 38°42' W 009°10'0 0.0
2018-Sep-15 11:30N 38°42' W 009°10'0 0.0
2018-Sep-15 11:03N 38°42' W 009°10'0 0.0
2018-Sep-15 11:00N 38°42' W 009°10'0 0.0
2018-Sep-15 10:29N 38°42' W 009°10'0 0.0
2018-Sep-15 10:01N 38°42' W 009°10'0 0.0
2018-Sep-15 09:58N 38°42' W 009°10'0 0.0
2018-Sep-15 09:27N 38°42' W 009°10'0 0.0
2018-Sep-15 09:03N 38°42' W 009°10'0 0.0
2018-Sep-15 08:56N 38°42' W 009°10'0 0.0
2018-Sep-15 08:28N 38°42' W 009°10'0 0.0
2018-Sep-15 07:59N 38°42' W 009°10'0 0.0
2018-Sep-15 07:29N 38°42' W 009°10'0 0.0
2018-Sep-15 06:59N 38°42' W 009°10'0 0.0
2018-Sep-15 06:28N 38°42' W 009°10'0 0.8
2018-Sep-15 06:03N 38°42' W 009°09'0 5.0
2018-Sep-15 06:00N 38°42' W 009°09'4 8.6
2018-Sep-15 05:30N 38°41' W 009°15'613.7
2018-Sep-15 05:03N 38°38' W 009°21'114.3
2018-Sep-15 05:00N 38°37' W 009°22'713.8
2018-Sep-15 04:30N 38°35' W 009°30'614.2
2018-Sep-15 04:03N 38°34' W 009°38'114.3
2018-Sep-15 04:00N 38°34' W 009°39'714.1
2018-Sep-15 03:30N 38°34' W 009°48'613.9
2018-Sep-15 03:03N 38°33' W 009°56'114.2
2018-Sep-15 03:00N 38°33' W 009°57'612.1
2018-Sep-15 02:30N 38°36' W 010°04'613.9
2018-Sep-15 02:03N 38°42' W 010°06'114.1
2018-Sep-15 02:00N 38°43' W 010°06'713.3
2018-Sep-15 01:30N 38°49' W 010°06'612.8
2018-Sep-15 01:03N 38°55' W 010°05'113.0
2018-Sep-15 01:00N 38°56' W 010°05'713.8
2018-Sep-15 00:30N 39°02' W 010°02'817.1
2018-Sep-15 00:03N 39°10' W 009°60'116.8
2018-Sep-15 00:00N 39°11' W 009°59'816.7
2018-Sep-14 23:30N 39°19' W 009°56'1017.1
2018-Sep-14 22:56N 39°28' W 009°53'716.7
2018-Sep-14 22:30N 39°35' W 009°50'816.9
2018-Sep-14 22:03N 39°42' W 009°45'117.2
2018-Sep-14 22:00N 39°42' W 009°45'7117.9
2018-Sep-14 18:03N 40°45' W 009°02'117.5
2018-Sep-14 18:00N 40°46' W 009°01'1117.8
2018-Sep-14 17:22N 40°55' W 008°53'617.5
2018-Sep-14 17:03N 41°00' W 008°50'117.3
2018-Sep-14 17:00N 41°01' W 008°49'917.3
2018-Sep-14 16:30N 41°08' W 008°44'3 5.7
2018-Sep-14 16:03N 41°11' W 008°42'0 1.4
2018-Sep-14 16:00N 41°11' W 008°42'0 0.0
2018-Sep-14 15:30N 41°11' W 008°42'0 0.0
2018-Sep-14 15:03N 41°11' W 008°42'0 0.0
2018-Sep-14 15:00N 41°11' W 008°42'0 0.0
2018-Sep-14 14:03N 41°11' W 008°42'0 0.0
2018-Sep-14 13:59N 41°11' W 008°42'0 0.0
2018-Sep-14 13:28N 41°11' W 008°42'0 0.0
2018-Sep-14 13:01N 41°11' W 008°42'0 0.0
2018-Sep-14 12:52N 41°11' W 008°42'0 0.0
2018-Sep-14 12:28N 41°11' W 008°42'0 0.0
2018-Sep-14 12:03N 41°11' W 008°42'0 0.0
2018-Sep-14 12:00N 41°11' W 008°42'0 0.0
2018-Sep-14 11:29N 41°11' W 008°42'0 0.0
2018-Sep-14 11:02N 41°11' W 008°42'0 0.0
2018-Sep-14 10:59N 41°11' W 008°42'0 0.0
2018-Sep-14 10:29N 41°11' W 008°42'0 0.0
2018-Sep-14 10:02N 41°11' W 008°42'0 0.0
2018-Sep-14 09:59N 41°11' W 008°42'0 0.0
2018-Sep-14 09:29N 41°11' W 008°42'0 0.0
2018-Sep-14 09:01N 41°11' W 008°42'0 0.0
2018-Sep-14 08:58N 41°11' W 008°42'0 0.0
2018-Sep-14 08:30N 41°11' W 008°42'0 0.0
2018-Sep-14 08:03N 41°11' W 008°42'0 0.0
2018-Sep-14 07:58N 41°11' W 008°42'0 0.4
2018-Sep-14 07:30N 41°11' W 008°42'1 2.6
2018-Sep-14 07:03N 41°10' W 008°43'0 4.2
2018-Sep-14 07:00N 41°10' W 008°43'510.1
2018-Sep-14 06:30N 41°12' W 008°49'813.9
2018-Sep-14 05:56N 41°17' W 008°57'614.3
2018-Sep-14 05:30N 41°21' W 009°03'613.7
2018-Sep-14 05:03N 41°26' W 009°08'113.9
2018-Sep-14 05:00N 41°27' W 009°08'  
Track history (hours):
 
Tides and Currents Weather Stations Pressure Air Temp Water Temp Dewpoint Dewpoint Depression Visibility Wind Speed Wind Dir Waves Ship Positions

Costa Mediterranea

Last reported at 2018-Sep-24 02:19 UTC. Time now 2018-Sep-24 21:10 UTC.
Position N 40°17' E 002°16'.

Length 293 m; draft 8 m.

Type: Ship. MMSI: 247088200.

Date/timePositionNaut miles runAvg speedWind from/ knotsBaromVisibWave heightAir tempDewpointWater temp
2018-Sep-24 02:19N 40°17' E 002°16'3 9.7
2018-Sep-24 02:02N 40°15' E 002°15'0 9.7
2018-Sep-24 02:01N 40°15' E 002°15'13 9.9
2018-Sep-24 00:40N 40°03' E 002°07'410.1
2018-Sep-24 00:19N 39°59' E 002°06'310.0
2018-Sep-24 00:03N 39°57' E 002°04'4 9.9
2018-Sep-23 23:42N 39°54' E 002°02'610.2
2018-Sep-23 23:09N 39°49' E 001°59'3 9.9
2018-Sep-23 22:54N 39°47' E 001°58'4 9.9
2018-Sep-23 22:30N 39°43' E 001°56'8 9.5
2018-Sep-23 21:39N 39°36' E 001°51'1 9.5
2018-Sep-23 21:30N 39°34' E 001°51'4 8.9
2018-Sep-23 21:02N 39°30' E 001°54'0 9.6
2018-Sep-23 21:01N 39°30' E 001°54'17 9.6
2018-Sep-23 19:18N 39°19' E 002°09'210.0
2018-Sep-23 19:04N 39°17' E 002°12'1 9.9
2018-Sep-23 19:00N 39°17' E 002°12'4 8.9
2018-Sep-23 18:30N 39°17' E 002°18'4 9.6
2018-Sep-23 18:04N 39°20' E 002°23'1 9.5
2018-Sep-23 18:00N 39°20' E 002°23'5 9.6
2018-Sep-23 17:28N 39°23' E 002°29'4 9.6
2018-Sep-23 17:03N 39°25' E 002°33'0 9.8
2018-Sep-23 17:00N 39°26' E 002°33'5 9.9
2018-Sep-23 16:31N 39°30' E 002°37'4 8.1
2018-Sep-23 16:03N 39°33' E 002°38'0 2.8
2018-Sep-23 16:00N 39°33' E 002°38'0 0.5
2018-Sep-23 15:29N 39°33' E 002°38'0 0.0
2018-Sep-23 15:02N 39°33' E 002°38'0 0.0
2018-Sep-23 14:59N 39°33' E 002°38'0 0.0
2018-Sep-23 14:02N 39°33' E 002°38'0 0.0
2018-Sep-23 13:29N 39°33' E 002°38'0 0.0
2018-Sep-23 13:02N 39°33' E 002°38'0 0.0
2018-Sep-23 12:59N 39°33' E 002°38'0 0.0
2018-Sep-23 12:29N 39°33' E 002°38'0 0.0
2018-Sep-23 12:02N 39°33' E 002°38'0 0.0
2018-Sep-23 11:59N 39°33' E 002°38'0 0.0
2018-Sep-23 11:29N 39°33' E 002°38'0 0.0
2018-Sep-23 11:02N 39°33' E 002°38'0 0.0
2018-Sep-23 10:59N 39°33' E 002°38'0 0.0
2018-Sep-23 10:26N 39°33' E 002°38'0 0.0
2018-Sep-23 10:02N 39°33' E 002°38'0 0.0
2018-Sep-23 09:59N 39°33' E 002°38'0 0.0
2018-Sep-23 09:29N 39°33' E 002°38'0 0.0
2018-Sep-23 09:02N 39°33' E 002°38'0 0.0
2018-Sep-23 08:59N 39°33' E 002°38'0 0.0
2018-Sep-23 08:29N 39°33' E 002°38'0 0.0
2018-Sep-23 08:02N 39°33' E 002°38'0 0.0
2018-Sep-23 07:59N 39°33' E 002°38'0 0.0
2018-Sep-23 07:29N 39°33' E 002°38'0 0.0
2018-Sep-23 07:02N 39°33' E 002°38'0 0.0
2018-Sep-23 06:59N 39°33' E 002°38'0 0.0
2018-Sep-23 06:29N 39°33' E 002°38'0 0.0
2018-Sep-23 06:01N 39°33' E 002°38'0 0.0
2018-Sep-23 05:58N 39°33' E 002°38'0 0.0
2018-Sep-23 05:28N 39°33' E 002°38'0 0.4
2018-Sep-23 05:03N 39°33' E 002°38'0 2.8
2018-Sep-23 05:00N 39°33' E 002°38'4 7.4
2018-Sep-23 04:30N 39°30' E 002°37'613.5
2018-Sep-23 04:03N 39°25' E 002°32'113.4
2018-Sep-23 04:00N 39°25' E 002°31'713.7
2018-Sep-23 03:30N 39°25' E 002°22'612.7
2018-Sep-23 03:03N 39°29' E 002°18'613.1
2018-Sep-23 02:36N 39°34' E 002°13'113.3
2018-Sep-23 02:30N 39°35' E 002°13'2112.8
2018-Sep-23 00:53N 39°56' E 002°14'1312.5
2018-Sep-22 23:48N 40°09' E 002°13'512.7
2018-Sep-22 23:23N 40°15' E 002°13'5412.6
2018-Sep-22 19:06N 41°09' E 002°11'113.3
2018-Sep-22 19:03N 41°09' E 002°11'113.5
2018-Sep-22 19:00N 41°10' E 002°11'612.9
2018-Sep-22 18:30N 41°16' E 002°11'4 9.9
2018-Sep-22 18:03N 41°21' E 002°10'0 4.9
2018-Sep-22 18:01N 41°21' E 002°10'0 0.1
2018-Sep-22 17:25N 41°21' E 002°10'0 0.0
2018-Sep-22 17:01N 41°21' E 002°10'0 0.0
2018-Sep-22 16:58N 41°21' E 002°10'0 0.0
2018-Sep-22 16:29N 41°21' E 002°10'0 0.0
2018-Sep-22 15:59N 41°21' E 002°10'0 0.0
2018-Sep-22 15:30N 41°21' E 002°10'0 0.0
2018-Sep-22 15:03N 41°21' E 002°10'0 0.0
2018-Sep-22 14:59N 41°21' E 002°10'0 0.0
2018-Sep-22 14:30N 41°21' E 002°10'0 0.0
2018-Sep-22 13:58N 41°21' E 002°10'0 0.0
2018-Sep-22 13:29N 41°21' E 002°10'0 0.0
2018-Sep-22 13:03N 41°21' E 002°10'0 0.0
2018-Sep-22 12:59N 41°21' E 002°10'0 0.0
2018-Sep-22 12:29N 41°21' E 002°10'0 0.0
2018-Sep-22 12:02N 41°21' E 002°10'0 0.0
2018-Sep-22 11:56N 41°21' E 002°10'0 0.0
2018-Sep-22 11:29N 41°21' E 002°10'0 1.0
2018-Sep-22 11:04N 41°21' E 002°10'0 1.0
2018-Sep-22 11:00N 41°21' E 002°10'4 8.4
2018-Sep-22 10:30N 41°17' E 002°11'716.1
2018-Sep-22 10:04N 41°19' E 002°20'118.2
2018-Sep-22 10:00N 41°20' E 002°21'22617.3
2018-Sep-21 20:57N 43°07' E 006°51'818.9
2018-Sep-21 20:30N 43°11' E 007°01'919.1
2018-Sep-21 20:03N 43°16' E 007°10'119.2
2018-Sep-21 20:00N 43°17' E 007°11'918.8
2018-Sep-21 19:31N 43°22' E 007°22'818.8
2018-Sep-21 19:03N 43°27' E 007°31'118.9
2018-Sep-21 19:00N 43°28' E 007°32'918.9
2018-Sep-21 18:30N 43°34' E 007°42'919.1
2018-Sep-21 18:04N 43°40' E 007°51'119.2
2018-Sep-21 18:00N 43°40' E 007°52'1019.2
2018-Sep-21 17:30N 43°47' E 008°01'918.9
2018-Sep-21 17:03N 43°53' E 008°10'118.8
2018-Sep-21 17:00N 43°54' E 008°11'918.8
2018-Sep-21 16:30N 44°01' E 008°19'818.6
2018-Sep-21 16:04N 44°07' E 008°26'118.5
2018-Sep-21 16:01N 44°08' E 008°27'917.2
2018-Sep-21 15:31N 44°16' E 008°32'3 7.0
2018-Sep-21 15:03N 44°19' E 008°29'0 1.2
2018-Sep-21 15:00N 44°19' E 008°29'0 0.0
2018-Sep-21 14:30N 44°19' E 008°29'0 0.0
2018-Sep-21 13:30N 44°19' E 008°29'0 0.0
2018-Sep-21 13:03N 44°19' E 008°29'0 0.0
2018-Sep-21 13:00N 44°19' E 008°29'0 0.0
2018-Sep-21 12:30N 44°19' E 008°29'0 0.0
2018-Sep-21 12:02N 44°19' E 008°29'0 0.0
2018-Sep-21 11:56N 44°19' E 008°29'0 0.0
2018-Sep-21 11:29N 44°19' E 008°29'0 0.0
2018-Sep-21 11:02N 44°19' E 008°29'0 0.0
2018-Sep-21 10:59N 44°19' E 008°29'0 0.0
2018-Sep-21 10:23N 44°19' E 008°29'0 0.0
2018-Sep-21 10:02N 44°19' E 008°29'0 0.0
2018-Sep-21 09:59N 44°19' E 008°29'0 0.0
2018-Sep-21 09:29N 44°19' E 008°29'0 0.0
2018-Sep-21 09:02N 44°19' E 008°29'0 0.0
2018-Sep-21 08:59N 44°19' E 008°29'0 0.0
2018-Sep-21 08:29N 44°19' E 008°29'0 0.0
2018-Sep-21 08:01N 44°19' E 008°29'0 0.0
2018-Sep-21 07:58N 44°19' E 008°29'0 0.0
2018-Sep-21 07:28N 44°19' E 008°29'0 0.0
2018-Sep-21 07:01N 44°19' E 008°29'0 0.0
2018-Sep-21 06:58N 44°19' E 008°29'0 0.0
2018-Sep-21 06:28N 44°19' E 008°29'0 0.0
2018-Sep-21 06:01N 44°19' E 008°29'0 0.0
2018-Sep-21 05:58N 44°19' E 008°29'1 1.8
2018-Sep-21 05:31N 44°19' E 008°30'2 5.0
2018-Sep-21 05:04N 44°17' E 008°32'111.3
2018-Sep-21 05:00N 44°17' E 008°32'612.2
2018-Sep-21 04:30N 44°11' E 008°30'612.8
2018-Sep-21 04:03N 44°06' E 008°25'113.0
2018-Sep-21 04:01N 44°06' E 008°24'713.3
2018-Sep-21 03:31N 44°00' E 008°19'613.7
2018-Sep-21 03:03N 43°55' E 008°13'113.6
2018-Sep-21 03:00N 43°55' E 008°13'713.4
2018-Sep-21 02:31N 43°50' E 008°06'613.4
2018-Sep-21 02:03N 43°46' E 008°00'113.4
2018-Sep-21 02:00N 43°45' E 007°60'713.3
2018-Sep-21 01:30N 43°41' E 007°53'613.4
2018-Sep-21 01:04N 43°37' E 007°47'113.7
2018-Sep-21 01:01N 43°36' E 007°46'713.7
2018-Sep-21 00:30N 43°32' E 007°39'613.7
2018-Sep-21 00:03N 43°28' E 007°32'113.9
2018-Sep-21 00:00N 43°28' E 007°32'714.0
2018-Sep-20 23:30N 43°24' E 007°24'614.0
2018-Sep-20 23:03N 43°20' E 007°17'113.9
2018-Sep-20 23:00N 43°19' E 007°16'713.8
2018-Sep-20 22:30N 43°15' E 007°08'614.0
2018-Sep-20 22:03N 43°12' E 007°01'114.2
2018-Sep-20 22:01N 43°11' E 007°00'714.1
2018-Sep-20 21:30N 43°08' E 006°52'613.8
2018-Sep-20 21:03N 43°05' E 006°45'113.8
2018-Sep-20 21:00N 43°04' E 006°44'713.8
2018-Sep-20 20:30N 43°01' E 006°36'5812.8
2018-Sep-20 15:58N 43°11' E 005°17'613.6
2018-Sep-20 15:30N 43°18' E 005°15'4 0.4
2018-Sep-20 04:54N 43°21' E 005°19'4 7.8
2018-Sep-20 04:21N 43°19' E 005°14'310.6
2018-Sep-20 04:03N 43°16' E 005°11'111.1
2018-Sep-20 04:00N 43°16' E 005°11'610.9
2018-Sep-20 03:29N 43°10' E 005°10'510.9
2018-Sep-20 03:02N 43°06' E 005°07'011.1
2018-Sep-20 03:00N 43°05' E 005°07'711.0
2018-Sep-20 02:24N 42°59' E 005°04'410.8
2018-Sep-20 02:02N 42°55' E 005°03'010.7
2018-Sep-20 02:00N 42°55' E 005°02'710.4
2018-Sep-20 01:21N 42°49' E 004°59'410.0
2018-Sep-20 00:57N 42°45' E 004°58'8 9.9
2018-Sep-20 00:10N 42°38' E 004°54'2 9.6
2018-Sep-20 00:00N 42°36' E 004°53'11 9.6
2018-Sep-19 22:50N 42°25' E 004°48'3 9.7
2018-Sep-19 22:30N 42°22' E 004°47'4 9.5
2018-Sep-19 22:03N 42°18' E 004°47'1 9.6
2018-Sep-19 22:00N 42°18' E 004°47'5 9.2
2018-Sep-19 21:30N 42°14' E 004°43'512.1
2018-Sep-19 21:03N 42°11' E 004°37'010.5
2018-Sep-19 21:00N 42°10' E 004°37'264 9.7
2018-Sep-18 17:54N 39°34' W 000°04'4 9.8
2018-Sep-18 17:30N 39°31' W 000°08'510.0
2018-Sep-18 17:03N 39°28' W 000°11'110.2
2018-Sep-18 17:00N 39°27' W 000°11'5 8.7
2018-Sep-18 16:26N 39°25' W 000°17'2 6.1
2018-Sep-18 16:01N 39°27' W 000°19'0 2.2
2018-Sep-18 16:00N 39°27' W 000°19'0 0.1
2018-Sep-18 15:22N 39°27' W 000°19'0 0.0
2018-Sep-18 14:58N 39°27' W 000°19'0 0.0
2018-Sep-18 14:02N 39°27' W 000°19'0 0.0
2018-Sep-18 14:00N 39°27' W 000°19'0 0.0
2018-Sep-18 13:30N 39°27' W 000°19'0 0.0
2018-Sep-18 13:03N 39°27' W 000°19'0 0.0
2018-Sep-18 13:00N 39°27' W 000°19'0 0.0
2018-Sep-18 12:30N 39°27' W 000°19'0 0.0
2018-Sep-18 12:00N 39°27' W 000°19'0 0.0
2018-Sep-18 11:30N 39°27' W 000°19'0 0.0
2018-Sep-18 11:00N 39°27' W 000°19'0 0.0
2018-Sep-18 10:27N 39°27' W 000°19'0 0.0
2018-Sep-18 10:00N 39°27' W 000°19'0 0.0
2018-Sep-18 09:30N 39°27' W 000°19'0 0.0
2018-Sep-18 09:00N 39°27' W 000°19'0 0.0
2018-Sep-18 08:30N 39°27' W 000°19'0 0.0
2018-Sep-18 08:00N 39°27' W 000°19'0 0.0
2018-Sep-18 07:30N 39°27' W 000°19'0 0.0
2018-Sep-18 07:00N 39°27' W 000°19'0 0.0
2018-Sep-18 06:29N 39°27' W 000°19'0 0.0
2018-Sep-18 06:03N 39°27' W 000°19'0 0.0
2018-Sep-18 06:01N 39°27' W 000°19'0 0.0
2018-Sep-18 05:30N 39°27' W 000°19'0 1.0
2018-Sep-18 05:03N 39°27' W 000°19'0 1.3
2018-Sep-18 05:00N 39°27' W 000°19'3 5.5
2018-Sep-18 04:30N 39°25' W 000°17'510.4
2018-Sep-18 04:01N 39°21' W 000°12'79 9.3
2018-Sep-17 19:29N 38°02' W 000°06'811.4
2018-Sep-17 18:44N 37°55' W 000°12'311.4
2018-Sep-17 18:30N 37°53' W 000°13'611.3
2018-Sep-17 17:59N 37°48' W 000°18'611.6
2018-Sep-17 17:30N 37°44' W 000°22'511.7
2018-Sep-17 17:03N 37°39' W 000°25'012.0
2018-Sep-17 17:00N 37°39' W 000°26'611.9
2018-Sep-17 16:31N 37°34' W 000°30'611.8
2018-Sep-17 16:00N 37°30' W 000°35'611.9
2018-Sep-17 15:30N 37°26' W 000°41'511.8
2018-Sep-17 15:03N 37°22' W 000°46'111.9
2018-Sep-17 15:01N 37°22' W 000°47'612.0
2018-Sep-17 14:31N 37°18' W 000°52'712.3
2018-Sep-17 13:56N 37°13' W 000°58'612.3
2018-Sep-17 13:27N 37°09' W 001°04'21011.5
2018-Sep-16 19:16N 36°05' W 005°13'311.9
2018-Sep-16 19:01N 36°05' W 005°16'012.5
2018-Sep-16 19:01N 36°05' W 005°16'611.4
2018-Sep-16 18:29N 36°07' W 005°23'2 1.7
2018-Sep-16 17:17N 36°09' W 005°22'0 0.0
2018-Sep-16 16:59N 36°09' W 005°22'0 0.0
2018-Sep-16 16:17N 36°09' W 005°22'0 0.0
2018-Sep-16 15:41N 36°09' W 005°22'0 0.0
2018-Sep-16 15:29N 36°09' W 005°22'0 0.0
2018-Sep-16 14:59N 36°09' W 005°22'0 0.0
2018-Sep-16 14:31N 36°09' W 005°22'0 0.0
2018-Sep-16 13:03N 36°09' W 005°22'0 0.0
2018-Sep-16 12:57N 36°09' W 005°22'0 0.0
2018-Sep-16 12:21N 36°09' W 005°22'0 0.0
2018-Sep-16 12:01N 36°09' W 005°22'0 0.0
2018-Sep-16 12:00N 36°09' W 005°22'5 4.2
2018-Sep-16 10:42N 36°03' W 005°23'317.2
2018-Sep-16 10:30N 36°00' W 005°24'11518.2
2018-Sep-16 04:11N 36°13' W 007°46'218.6
2018-Sep-16 04:03N 36°13' W 007°49'118.5
2018-Sep-16 04:00N 36°14' W 007°50'918.5
2018-Sep-16 03:30N 36°16' W 008°01'818.1
2018-Sep-16 03:03N 36°18' W 008°11'118.1
2018-Sep-16 03:00N 36°19' W 008°12'918.2
2018-Sep-16 02:30N 36°21' W 008°22'818.1
2018-Sep-16 02:03N 36°23' W 008°32'118.2
2018-Sep-16 02:00N 36°23' W 008°33'1018.3
2018-Sep-16 01:29N 36°26' W 008°44'818.4
2018-Sep-16 01:03N 36°28' W 008°54'118.5
2018-Sep-16 01:00N 36°29' W 008°55'918.2
2018-Sep-16 00:30N 36°31' W 009°06'818.1
2018-Sep-16 00:03N 36°34' W 009°15'118.2
2018-Sep-16 00:00N 36°35' W 009°16'918.7
2018-Sep-15 23:30N 36°41' W 009°25'818.7
2018-Sep-15 23:03N 36°47' W 009°32'118.6
2018-Sep-15 23:00N 36°48' W 009°33'1019.1
2018-Sep-15 22:30N 36°57' W 009°36'919.4
2018-Sep-15 22:03N 37°05' W 009°36'119.7
2018-Sep-15 22:00N 37°06' W 009°36'1019.2
2018-Sep-15 21:30N 37°16' W 009°34'919.3
2018-Sep-15 21:03N 37°25' W 009°33'119.1
2018-Sep-15 21:00N 37°26' W 009°33'918.8
2018-Sep-15 20:30N 37°35' W 009°32'818.4
2018-Sep-15 20:03N 37°43' W 009°30'118.3
2018-Sep-15 20:00N 37°44' W 009°30'918.5
2018-Sep-15 19:30N 37°53' W 009°29'818.5
2018-Sep-15 19:03N 38°01' W 009°28'118.4
2018-Sep-15 19:00N 38°02' W 009°28'918.4
2018-Sep-15 18:30N 38°12' W 009°26'818.1
2018-Sep-15 18:03N 38°20' W 009°25'118.1
2018-Sep-15 18:00N 38°21' W 009°25'918.5
2018-Sep-15 17:30N 38°30' W 009°24'818.1
2018-Sep-15 17:03N 38°38' W 009°21'117.0
2018-Sep-15 17:00N 38°38' W 009°21'713.4
2018-Sep-15 16:30N 38°41' W 009°13'3 5.5
2018-Sep-15 16:01N 38°42' W 009°10'0 0.1
2018-Sep-15 16:00N 38°42' W 009°10'0 0.0
2018-Sep-15 15:28N 38°42' W 009°10'0 0.0
2018-Sep-15 15:03N 38°42' W 009°10'0 0.0
2018-Sep-15 14:03N 38°42' W 009°10'0 0.0
2018-Sep-15 14:00N 38°42' W 009°10'0 0.0
2018-Sep-15 13:22N 38°42' W 009°10'0 0.0
2018-Sep-15 13:00N 38°42' W 009°10'0 0.0
2018-Sep-15 12:30N 38°42' W 009°10'0 0.0
2018-Sep-15 11:57N 38°42' W 009°10'0 0.0
2018-Sep-15 11:30N 38°42' W 009°10'0 0.0
2018-Sep-15 11:03N 38°42' W 009°10'0 0.0
2018-Sep-15 11:00N 38°42' W 009°10'0 0.0
2018-Sep-15 10:29N 38°42' W 009°10'0 0.0
2018-Sep-15 10:01N 38°42' W 009°10'0 0.0
2018-Sep-15 09:58N 38°42' W 009°10'0 0.0
2018-Sep-15 09:27N 38°42' W 009°10'0 0.0
2018-Sep-15 09:03N 38°42' W 009°10'0 0.0
2018-Sep-15 08:56N 38°42' W 009°10'0 0.0
2018-Sep-15 08:28N 38°42' W 009°10'0 0.0
2018-Sep-15 07:59N 38°42' W 009°10'0 0.0
2018-Sep-15 07:29N 38°42' W 009°10'0 0.0
2018-Sep-15 06:59N 38°42' W 009°10'0 0.0
2018-Sep-15 06:28N 38°42' W 009°10'0 0.8
2018-Sep-15 06:03N 38°42' W 009°09'0 5.0
2018-Sep-15 06:00N 38°42' W 009°09'4 8.6
2018-Sep-15 05:30N 38°41' W 009°15'613.7
2018-Sep-15 05:03N 38°38' W 009°21'114.3
2018-Sep-15 05:00N 38°37' W 009°22'713.8
2018-Sep-15 04:30N 38°35' W 009°30'614.2
2018-Sep-15 04:03N 38°34' W 009°38'114.3
2018-Sep-15 04:00N 38°34' W 009°39'714.1
2018-Sep-15 03:30N 38°34' W 009°48'613.9
2018-Sep-15 03:03N 38°33' W 009°56'114.2
2018-Sep-15 03:00N 38°33' W 009°57'612.1
2018-Sep-15 02:30N 38°36' W 010°04'613.9
2018-Sep-15 02:03N 38°42' W 010°06'114.1
2018-Sep-15 02:00N 38°43' W 010°06'713.3
2018-Sep-15 01:30N 38°49' W 010°06'612.8
2018-Sep-15 01:03N 38°55' W 010°05'113.0
2018-Sep-15 01:00N 38°56' W 010°05'713.8
2018-Sep-15 00:30N 39°02' W 010°02'817.1
2018-Sep-15 00:03N 39°10' W 009°60'116.8
2018-Sep-15 00:00N 39°11' W 009°59'816.7
2018-Sep-14 23:30N 39°19' W 009°56'1017.1
2018-Sep-14 22:56N 39°28' W 009°53'716.7
2018-Sep-14 22:30N 39°35' W 009°50'816.9
2018-Sep-14 22:03N 39°42' W 009°45'117.2
2018-Sep-14 22:00N 39°42' W 009°45'7117.9
2018-Sep-14 18:03N 40°45' W 009°02'117.5
2018-Sep-14 18:00N 40°46' W 009°01'1117.8
2018-Sep-14 17:22N 40°55' W 008°53'617.5
2018-Sep-14 17:03N 41°00' W 008°50'117.3
2018-Sep-14 17:00N 41°01' W 008°49'917.3
2018-Sep-14 16:30N 41°08' W 008°44'3 5.7
2018-Sep-14 16:03N 41°11' W 008°42'0 1.4
2018-Sep-14 16:00N 41°11' W 008°42'0 0.0
2018-Sep-14 15:30N 41°11' W 008°42'0 0.0
2018-Sep-14 15:03N 41°11' W 008°42'0 0.0
2018-Sep-14 15:00N 41°11' W 008°42'0 0.0
2018-Sep-14 14:03N 41°11' W 008°42'0 0.0
2018-Sep-14 13:59N 41°11' W 008°42'0 0.0
2018-Sep-14 13:28N 41°11' W 008°42'0 0.0
2018-Sep-14 13:01N 41°11' W 008°42'0 0.0
2018-Sep-14 12:52N 41°11' W 008°42'0 0.0
2018-Sep-14 12:28N 41°11' W 008°42'0 0.0
2018-Sep-14 12:03N 41°11' W 008°42'0 0.0
2018-Sep-14 12:00N 41°11' W 008°42'0 0.0
2018-Sep-14 11:29N 41°11' W 008°42'0 0.0
2018-Sep-14 11:02N 41°11' W 008°42'0 0.0
2018-Sep-14 10:59N 41°11' W 008°42'0 0.0
2018-Sep-14 10:29N 41°11' W 008°42'0 0.0
2018-Sep-14 10:02N 41°11' W 008°42'0 0.0
2018-Sep-14 09:59N 41°11' W 008°42'0 0.0
2018-Sep-14 09:29N 41°11' W 008°42'0 0.0
2018-Sep-14 09:01N 41°11' W 008°42'0 0.0
2018-Sep-14 08:58N 41°11' W 008°42'0 0.0
2018-Sep-14 08:30N 41°11' W 008°42'0 0.0
2018-Sep-14 08:03N 41°11' W 008°42'0 0.0
2018-Sep-14 07:58N 41°11' W 008°42'0 0.4
2018-Sep-14 07:30N 41°11' W 008°42'1 2.6
2018-Sep-14 07:03N 41°10' W 008°43'0 4.2
2018-Sep-14 07:00N 41°10' W 008°43'510.1
2018-Sep-14 06:30N 41°12' W 008°49'813.9
2018-Sep-14 05:56N 41°17' W 008°57'614.3
2018-Sep-14 05:30N 41°21' W 009°03'613.7
2018-Sep-14 05:03N 41°26' W 009°08'113.9
2018-Sep-14 05:00N 41°27' W 009°08'  

Dump ship's entire track history